Time;durP1;ratioP1;P1;durP2;ratioP2;P2;SDS_P1;SDS_P2;PMS_P1;PMS_P2;Temp;Humidity;BMP_temperature;BMP_pressure;BME280_temperature;BME280_humidity;BME280_pressure;Samples;Min_cycle;Max_cycle;Signal;HPM_P1;HPM_P2
2022/02/26 00:00:01;;;;;;;36.37;6.50;;;2.30;99.90;;;;;;4995537;28;20114;-76
2022/02/26 00:02:29;;;;;;;39.20;5.57;;;2.20;99.90;;;;;;5014439;28;20041;-76
2022/02/26 00:04:55;;;;;;;23.30;5.57;;;2.20;99.90;;;;;;4992343;28;20041;-76
2022/02/26 00:07:20;;;;;;;23.47;5.27;;;2.10;99.90;;;;;;5001462;28;20045;-76
2022/02/26 00:09:46;;;;;;;34.60;6.70;;;2.10;99.90;;;;;;5004624;28;20049;-77
2022/02/26 00:12:12;;;;;;;45.60;6.93;;;2.10;99.90;;;;;;5020859;28;20053;-77
2022/02/26 00:14:38;;;;;;;35.73;6.03;;;2.10;99.90;;;;;;5014199;28;20046;-76
2022/02/26 00:17:04;;;;;;;30.53;5.53;;;2.10;99.90;;;;;;4998080;28;20037;-76
2022/02/26 00:19:32;;;;;;;40.43;6.83;;;2.10;99.90;;;;;;4985188;28;20419;-77
2022/02/26 00:22:01;;;;;;;42.00;6.70;;;2.10;99.90;;;;;;5002896;28;20030;-77
2022/02/26 00:24:28;;;;;;;30.57;5.83;;;2.00;99.90;;;;;;5018152;28;20069;-77
2022/02/26 00:26:54;;;;;;;29.60;6.67;;;2.00;99.90;;;;;;4990253;28;20127;-76
2022/02/26 00:29:20;;;;;;;31.77;5.60;;;1.90;99.90;;;;;;4985510;28;20112;-77
2022/02/26 00:31:46;;;;;;;37.27;6.77;;;1.90;99.90;;;;;;4992472;28;20041;-76
2022/02/26 00:34:11;;;;;;;35.70;7.37;;;1.90;99.90;;;;;;5012742;28;20602;-77
2022/02/26 00:36:37;;;;;;;37.40;7.57;;;1.90;99.90;;;;;;5005209;28;20049;-77
2022/02/26 00:39:04;;;;;;;29.13;5.37;;;1.90;99.90;;;;;;5001703;28;20055;-76
2022/02/26 00:41:30;;;;;;;33.03;6.67;;;1.90;99.90;;;;;;5001632;28;20446;-79
2022/02/26 00:43:56;;;;;;;28.47;6.17;;;1.90;99.90;;;;;;5009310;28;20052;-76
2022/02/26 00:46:22;;;;;;;35.57;7.03;;;1.90;99.90;;;;;;4990001;28;20483;-76
2022/02/26 00:51:32;;;;;;;25.50;5.23;;;1.70;99.90;;;;;;5020923;28;20076;-76
2022/02/26 00:53:58;;;;;;;32.30;5.83;;;1.70;99.90;;;;;;5015554;28;20049;-76
2022/02/26 00:56:24;;;;;;;33.37;5.70;;;1.60;99.90;;;;;;5006509;28;20081;-76
2022/02/26 00:58:51;;;;;;;23.73;5.23;;;1.50;99.90;;;;;;5019513;28;20041;-76
2022/02/26 01:01:17;;;;;;;24.53;4.87;;;1.50;99.90;;;;;;4982788;28;20655;-76
2022/02/26 01:03:43;;;;;;;29.73;5.83;;;1.40;99.90;;;;;;4999211;28;20112;-76
2022/02/26 01:06:12;;;;;;;25.80;5.63;;;1.40;99.90;;;;;;5005722;28;20030;-76
2022/02/26 01:08:38;;;;;;;23.20;5.53;;;1.40;99.90;;;;;;4998071;28;20046;-77
2022/02/26 01:11:04;;;;;;;20.00;5.33;;;1.30;99.90;;;;;;5014175;28;20546;-77
2022/02/26 01:13:30;;;;;;;31.30;5.10;;;1.30;99.90;;;;;;5018296;28;20149;-77
2022/02/26 01:15:56;;;;;;;30.73;6.80;;;1.30;99.90;;;;;;4972762;28;20041;-77
2022/02/26 01:18:22;;;;;;;38.43;7.20;;;1.20;99.90;;;;;;5005891;28;20550;-77
2022/02/26 01:20:47;;;;;;;34.63;7.00;;;1.20;99.90;;;;;;4999968;28;20046;-76
2022/02/26 01:23:13;;;;;;;49.63;9.60;;;1.10;99.90;;;;;;5014226;28;20108;-77
2022/02/26 01:25:39;;;;;;;52.57;8.20;;;1.10;99.90;;;;;;4999235;28;20050;-77
2022/02/26 01:28:05;;;;;;;43.63;7.50;;;1.20;99.90;;;;;;4985241;28;20046;-77
2022/02/26 01:30:30;;;;;;;25.87;6.07;;;1.20;99.90;;;;;;4994104;28;20072;-77
2022/02/26 01:32:56;;;;;;;30.23;5.97;;;1.20;99.90;;;;;;4994313;28;20041;-77
2022/02/26 01:35:22;;;;;;;39.57;6.60;;;1.10;99.90;;;;;;4973095;28;20049;-77
2022/02/26 01:37:48;;;;;;;27.27;6.07;;;1.10;99.90;;;;;;5004391;28;20046;-77
2022/02/26 01:40:14;;;;;;;35.97;7.97;;;1.10;99.90;;;;;;5013332;28;20077;-76
2022/02/26 01:42:40;;;;;;;45.40;7.77;;;1.00;99.90;;;;;;5011605;28;20053;-77
2022/02/26 01:45:29;;;;;;;41.17;8.23;;;1.10;99.90;;;;;;5021339;28;20042;-76
2022/02/26 01:47:55;;;;;;;39.93;7.17;;;1.10;99.90;;;;;;5007409;28;20091;-76
2022/02/26 01:50:21;;;;;;;28.27;6.13;;;1.10;99.90;;;;;;5016884;28;20038;-77
2022/02/26 01:52:47;;;;;;;37.67;7.67;;;1.00;99.90;;;;;;4988297;28;20054;-76
2022/02/26 01:55:14;;;;;;;40.83;8.17;;;1.10;99.90;;;;;;5012894;28;20045;-77
2022/02/26 01:57:39;;;;;;;24.07;5.57;;;1.10;99.90;;;;;;5000855;28;20099;-77
2022/02/26 02:00:08;;;;;;;32.20;6.40;;;1.10;99.90;;;;;;5014785;28;20077;-77
2022/02/26 02:02:34;;;;;;;32.47;7.13;;;1.00;99.90;;;;;;5015897;28;20053;-77
2022/02/26 02:05:02;;;;;;;31.23;7.07;;;1.00;99.90;;;;;;4981986;28;20041;-77
2022/02/26 02:07:34;;;;;;;28.30;6.00;;;1.00;99.90;;;;;;5009100;28;20045;-77
2022/02/26 02:10:00;;;;;;;39.73;7.87;;;1.00;99.90;;;;;;4977800;28;20123;-77
2022/02/26 02:12:26;;;;;;;27.20;5.87;;;1.10;99.90;;;;;;5013511;28;20049;-77
2022/02/26 02:14:52;;;;;;;34.23;6.83;;;1.10;99.90;;;;;;4983194;28;20055;-76
2022/02/26 02:17:23;;;;;;;23.60;5.53;;;1.10;99.90;;;;;;4983036;28;20758;-77
2022/02/26 02:20:10;;;;;;;28.83;6.30;;;1.00;99.90;;;;;;5006799;28;20049;-77
2022/02/26 02:22:39;;;;;;;29.38;6.47;;;1.00;99.90;;;;;;4999045;28;20889;-77
2022/02/26 02:25:05;;;;;;;39.43;7.47;;;0.90;99.90;;;;;;5010969;28;20046;-77
2022/02/26 02:27:31;;;;;;;37.13;6.90;;;0.90;99.90;;;;;;4993830;28;20060;-77
2022/02/26 02:29:57;;;;;;;21.23;5.60;;;0.80;99.90;;;;;;5001815;28;20436;-77
2022/02/26 02:32:26;;;;;;;33.63;6.30;;;0.80;99.90;;;;;;5008887;28;20510;-76
2022/02/26 02:34:51;;;;;;;31.73;6.13;;;0.70;99.90;;;;;;4996898;28;20050;-77
2022/02/26 02:37:17;;;;;;;34.13;6.10;;;0.80;99.90;;;;;;5012726;28;20156;-77
2022/02/26 02:39:43;;;;;;;35.37;6.80;;;0.70;99.90;;;;;;4996281;28;20054;-76
2022/02/26 02:42:09;;;;;;;30.47;6.63;;;0.80;99.90;;;;;;4981456;28;20121;-76
2022/02/26 02:44:35;;;;;;;25.60;5.70;;;0.70;99.90;;;;;;5001381;28;20080;-76
2022/02/26 02:47:00;;;;;;;36.37;6.47;;;0.70;99.90;;;;;;5022645;28;20089;-77
2022/02/26 02:49:26;;;;;;;29.07;5.70;;;0.70;99.90;;;;;;5004818;28;20053;-76
2022/02/26 02:51:52;;;;;;;21.77;5.47;;;0.70;99.90;;;;;;5020703;28;20045;-76
2022/02/26 02:54:18;;;;;;;25.83;5.10;;;0.60;99.90;;;;;;5019779;28;20056;-76
2022/02/26 02:56:44;;;;;;;29.60;5.80;;;0.60;99.90;;;;;;5013835;28;20250;-76
2022/02/26 02:59:10;;;;;;;33.97;6.87;;;0.50;99.90;;;;;;5016083;28;20510;-76
2022/02/26 03:01:36;;;;;;;39.57;6.27;;;0.50;99.90;;;;;;5018626;28;20050;-77
2022/02/26 03:04:01;;;;;;;23.83;5.30;;;0.50;99.90;;;;;;5009654;28;20121;-76
2022/02/26 03:06:31;;;;;;;41.93;7.33;;;0.40;99.90;;;;;;4975175;28;20119;-76
2022/02/26 03:08:59;;;;;;;33.60;6.83;;;0.40;99.90;;;;;;4993174;28;20075;-76
2022/02/26 03:11:28;;;;;;;26.87;6.17;;;0.40;99.90;;;;;;4977089;28;20049;-76
2022/02/26 03:13:54;;;;;;;19.83;4.97;;;0.40;99.90;;;;;;5014896;28;20037;-76
2022/02/26 03:16:20;;;;;;;24.57;5.33;;;0.40;99.90;;;;;;5002347;28;20088;-76
2022/02/26 03:18:45;;;;;;;21.70;6.03;;;0.30;99.90;;;;;;5002223;28;20841;-76
2022/02/26 03:21:11;;;;;;;27.30;5.97;;;0.30;99.90;;;;;;5002351;28;20092;-77
2022/02/26 03:23:37;;;;;;;27.97;5.70;;;0.20;99.90;;;;;;4991296;28;20050;-77
2022/02/26 03:26:03;;;;;;;22.60;5.37;;;0.30;99.90;;;;;;5008846;28;20396;-76
2022/02/26 03:28:29;;;;;;;24.27;5.17;;;0.30;99.90;;;;;;5008414;28;20101;-77
2022/02/26 03:30:55;;;;;;;29.77;6.07;;;0.30;99.90;;;;;;4996192;28;20042;-76
2022/02/26 03:33:21;;;;;;;38.00;6.53;;;0.20;99.90;;;;;;5006596;28;20092;-76
2022/02/26 03:35:47;;;;;;;22.20;4.80;;;0.20;99.90;;;;;;5008941;28;20412;-77
2022/02/26 03:38:13;;;;;;;24.83;5.03;;;0.20;99.90;;;;;;4991643;28;20037;-77
2022/02/26 03:40:39;;;;;;;27.73;5.63;;;0.10;99.90;;;;;;5017151;28;20144;-76
2022/02/26 03:43:05;;;;;;;22.87;4.60;;;0.10;99.90;;;;;;5011513;28;20111;-77
2022/02/26 03:45:31;;;;;;;24.10;5.50;;;0.10;99.90;;;;;;5010782;28;20096;-77
2022/02/26 03:48:00;;;;;;;19.97;4.73;;;0.00;99.90;;;;;;5011485;28;20105;-77
2022/02/26 03:50:26;;;;;;;32.93;6.90;;;0.00;99.90;;;;;;5011101;28;20118;-78
2022/02/26 03:52:52;;;;;;;41.97;7.67;;;0.00;99.90;;;;;;5016616;28;20049;-76
2022/02/26 03:55:18;;;;;;;25.33;5.33;;;0.00;99.90;;;;;;5010374;28;20128;-77
2022/02/26 03:57:43;;;;;;;23.00;5.27;;;0.00;99.90;;;;;;5010812;28;20110;-77
2022/02/26 04:00:13;;;;;;;24.93;5.50;;;-0.10;99.90;;;;;;5011661;28;20306;-77
2022/02/26 04:02:39;;;;;;;36.72;6.47;;;0.00;99.90;;;;;;4995399;28;20056;-77
2022/02/26 04:05:05;;;;;;;23.37;5.27;;;-0.10;99.90;;;;;;4978927;28;20037;-77
2022/02/26 04:07:35;;;;;;;24.47;5.97;;;-0.10;99.90;;;;;;5010720;28;20136;-77
2022/02/26 04:10:01;;;;;;;34.60;6.20;;;-0.10;99.90;;;;;;5011365;28;20063;-77
2022/02/26 04:12:30;;;;;;;29.50;5.60;;;-0.10;99.90;;;;;;5027545;28;20686;-77
2022/02/26 04:14:55;;;;;;;27.73;5.43;;;-0.10;99.90;;;;;;5010892;28;20119;-77
2022/02/26 04:17:21;;;;;;;36.60;7.73;;;-0.10;99.90;;;;;;4978337;28;20049;-77
2022/02/26 04:19:47;;;;;;;25.63;5.53;;;-0.10;99.90;;;;;;4985117;28;20050;-77
2022/02/26 04:22:13;;;;;;;23.13;5.43;;;-0.10;99.90;;;;;;4976000;28;20048;-77
2022/02/26 04:24:39;;;;;;;35.47;7.17;;;0.10;99.90;;;;;;5011110;28;20164;-77
2022/02/26 04:27:04;;;;;;;38.13;6.80;;;0.00;99.90;;;;;;5011788;28;20039;-77
2022/02/26 04:29:30;;;;;;;31.97;5.97;;;0.00;99.90;;;;;;5011056;28;20064;-77
2022/02/26 04:31:56;;;;;;;32.37;7.53;;;-0.10;99.90;;;;;;5009797;28;20045;-77
2022/02/26 04:34:22;;;;;;;29.50;6.17;;;0.00;99.90;;;;;;5026990;28;20045;-77
2022/02/26 04:36:48;;;;;;;31.37;6.47;;;0.00;99.90;;;;;;5010672;28;20053;-77
2022/02/26 04:39:14;;;;;;;30.70;7.27;;;0.00;99.90;;;;;;5010443;28;20034;-77
2022/02/26 04:41:40;;;;;;;29.27;7.20;;;0.00;99.90;;;;;;4994370;28;20422;-77
2022/02/26 04:44:06;;;;;;;34.57;6.63;;;0.00;99.90;;;;;;5027000;28;20056;-77
2022/02/26 04:46:32;;;;;;;36.10;7.57;;;0.00;99.90;;;;;;5010318;28;20385;-77
2022/02/26 04:49:01;;;;;;;31.23;7.23;;;0.10;99.90;;;;;;5010749;28;20107;-77
2022/02/26 04:51:26;;;;;;;38.53;7.33;;;0.10;99.90;;;;;;4993776;28;20137;-77
2022/02/26 04:53:52;;;;;;;33.60;6.17;;;0.10;99.90;;;;;;4990341;28;20137;-77
2022/02/26 04:56:18;;;;;;;25.87;5.53;;;0.10;99.90;;;;;;5008124;28;20132;-77
2022/02/26 04:58:44;;;;;;;24.83;5.67;;;0.00;99.90;;;;;;4990587;28;20057;-77
2022/02/26 05:01:12;;;;;;;30.33;5.87;;;0.10;99.90;;;;;;5014431;28;20037;-76
2022/02/26 05:03:40;;;;;;;30.50;7.27;;;0.00;99.90;;;;;;5010647;28;20076;-76
2022/02/26 05:06:06;;;;;;;26.23;5.57;;;0.00;99.90;;;;;;4994537;28;20103;-76
2022/02/26 05:08:32;;;;;;;25.63;5.63;;;0.00;99.90;;;;;;5010018;28;20049;-76
2022/02/26 05:11:01;;;;;;;23.43;5.23;;;-0.10;99.90;;;;;;5026775;28;20369;-77
2022/02/26 05:13:27;;;;;;;28.60;6.50;;;-0.10;99.90;;;;;;5026378;28;20702;-76
2022/02/26 05:15:55;;;;;;;22.17;5.10;;;-0.10;99.90;;;;;;5026545;28;20045;-77
2022/02/26 05:18:21;;;;;;;33.27;6.00;;;-0.10;99.90;;;;;;5009683;28;20435;-76
2022/02/26 05:20:47;;;;;;;28.40;6.00;;;-0.10;99.90;;;;;;4993533;28;20045;-76
2022/02/26 05:23:13;;;;;;;35.53;6.00;;;-0.10;99.90;;;;;;4999152;28;20034;-76
2022/02/26 05:25:39;;;;;;;36.30;6.50;;;-0.10;99.90;;;;;;5009713;28;20041;-76
2022/02/26 05:28:04;;;;;;;25.43;5.10;;;-0.10;99.90;;;;;;5010074;28;20056;-76
2022/02/26 05:30:30;;;;;;;31.10;6.23;;;-0.20;99.90;;;;;;5010794;28;20049;-76
2022/02/26 05:32:56;;;;;;;26.53;5.67;;;-0.10;99.90;;;;;;5010405;28;20646;-76
2022/02/26 05:35:22;;;;;;;20.53;4.93;;;-0.20;99.90;;;;;;4994002;28;20508;-76
2022/02/26 05:37:48;;;;;;;30.33;6.20;;;-0.20;99.90;;;;;;4994013;28;20104;-76
2022/02/26 05:40:14;;;;;;;38.23;6.07;;;-0.20;99.90;;;;;;5010521;28;20034;-76
2022/02/26 05:42:40;;;;;;;33.83;5.93;;;-0.20;99.90;;;;;;4994844;28;20104;-76
2022/02/26 05:45:06;;;;;;;23.57;5.87;;;-0.30;99.90;;;;;;5010281;28;20116;-76
2022/02/26 05:47:31;;;;;;;21.73;4.70;;;-0.30;99.90;;;;;;5010380;28;20111;-76
2022/02/26 05:50:00;;;;;;;27.63;5.70;;;-0.40;99.90;;;;;;4994996;28;20062;-76
2022/02/26 05:52:26;;;;;;;25.37;4.70;;;-0.40;99.90;;;;;;5029966;28;20511;-76
2022/02/26 05:54:52;;;;;;;23.63;5.17;;;-0.50;99.90;;;;;;5014341;28;20053;-77
2022/02/26 05:57:18;;;;;;;30.57;6.53;;;-0.60;99.90;;;;;;5031059;28;20049;-77
2022/02/26 05:59:44;;;;;;;23.00;5.23;;;-0.50;99.90;;;;;;4997200;28;20053;-77
2022/02/26 06:02:10;;;;;;;22.07;5.20;;;-0.50;99.90;;;;;;4990924;28;20064;-77
2022/02/26 06:04:35;;;;;;;27.03;5.33;;;-0.50;99.90;;;;;;4997082;28;20137;-77
2022/02/26 06:07:01;;;;;;;27.53;5.87;;;-0.50;99.90;;;;;;5014244;28;20155;-77
2022/02/26 06:09:27;;;;;;;22.50;5.77;;;-0.60;99.90;;;;;;5013555;28;20064;-77
2022/02/26 06:11:53;;;;;;;23.33;4.97;;;-0.50;99.90;;;;;;5013334;28;20124;-77
2022/02/26 06:14:19;;;;;;;26.83;5.50;;;-0.60;99.90;;;;;;4997379;28;20140;-77
2022/02/26 06:16:45;;;;;;;23.93;5.50;;;-0.60;99.90;;;;;;4981675;28;20045;-77
2022/02/26 06:19:14;;;;;;;26.07;5.70;;;-0.60;99.90;;;;;;4997137;28;20046;-77
2022/02/26 06:21:40;;;;;;;41.23;7.20;;;-0.60;99.90;;;;;;5013511;28;20154;-77
2022/02/26 06:24:06;;;;;;;31.33;6.00;;;-0.60;99.90;;;;;;4995928;28;20108;-77
2022/02/26 06:26:32;;;;;;;28.93;6.00;;;-0.60;99.90;;;;;;4976964;28;20060;-77
2022/02/26 06:28:58;;;;;;;27.30;5.37;;;-0.60;99.90;;;;;;4999368;28;20377;-77
2022/02/26 06:31:24;;;;;;;27.03;5.80;;;-0.70;99.90;;;;;;5002183;28;20046;-77
2022/02/26 06:33:52;;;;;;;28.27;5.83;;;-0.70;99.90;;;;;;5009840;28;20050;-77
2022/02/26 06:36:18;;;;;;;18.43;4.67;;;-0.70;99.90;;;;;;5011734;28;20046;-77
2022/02/26 06:38:44;;;;;;;22.73;4.77;;;-0.70;99.90;;;;;;4971270;28;20057;-77
2022/02/26 06:41:11;;;;;;;24.43;5.20;;;-0.70;99.90;;;;;;4976571;28;20080;-77
2022/02/26 06:43:38;;;;;;;20.73;4.97;;;-0.70;99.90;;;;;;5000646;28;20099;-77
2022/02/26 06:46:06;;;;;;;34.67;6.23;;;-0.80;99.90;;;;;;5029770;28;20045;-77
2022/02/26 06:48:32;;;;;;;19.77;4.63;;;-0.70;99.90;;;;;;5028904;28;20438;-77
2022/02/26 06:50:58;;;;;;;28.47;8.57;;;-0.70;99.90;;;;;;5008357;28;20052;-77
2022/02/26 06:53:24;;;;;;;31.37;9.73;;;-0.70;99.90;;;;;;5017281;28;20041;-77
2022/02/26 06:55:50;;;;;;;30.30;9.47;;;-0.60;99.90;;;;;;4997229;28;20108;-78
2022/02/26 06:58:16;;;;;;;29.43;10.60;;;-0.50;99.90;;;;;;4990326;28;20033;-77
2022/02/26 07:00:41;;;;;;;36.23;11.27;;;-0.50;99.90;;;;;;4989169;28;20042;-77
2022/02/26 07:03:07;;;;;;;34.20;11.67;;;-0.40;99.90;;;;;;5007511;28;20120;-80
2022/02/26 07:05:33;;;;;;;27.87;7.57;;;-0.40;99.90;;;;;;4977082;28;20100;-81
2022/02/26 07:07:59;;;;;;;33.80;8.77;;;-0.30;99.90;;;;;;4975082;28;20046;-81
2022/02/26 07:10:25;;;;;;;29.53;8.70;;;-0.30;99.90;;;;;;4991622;28;20469;-81
2022/02/26 07:12:51;;;;;;;29.27;8.33;;;-0.20;99.90;;;;;;4992699;28;20153;-81
2022/02/26 07:15:17;;;;;;;36.70;8.33;;;-0.20;99.90;;;;;;4993873;28;20080;-81
2022/02/26 07:17:43;;;;;;;45.77;9.67;;;-0.20;99.90;;;;;;4997424;28;20092;-81
2022/02/26 07:20:13;;;;;;;26.17;7.30;;;-0.10;99.90;;;;;;4992519;28;20402;-81
2022/02/26 07:22:39;;;;;;;37.77;8.27;;;0.00;99.90;;;;;;4981895;28;20034;-81
2022/02/26 07:25:06;;;;;;;26.73;7.07;;;0.00;99.90;;;;;;4995094;28;20557;-81
2022/02/26 07:27:36;;;;;;;33.27;8.10;;;0.10;99.90;;;;;;4984341;28;20045;-80
2022/02/26 07:30:02;;;;;;;47.75;9.73;;;0.10;99.90;;;;;;5003123;28;20048;-81
2022/02/26 07:32:28;;;;;;;37.20;8.40;;;0.20;99.90;;;;;;5014312;28;20049;-81
2022/02/26 07:34:54;;;;;;;37.03;8.00;;;0.20;99.90;;;;;;4987911;28;20033;-81
2022/02/26 07:37:23;;;;;;;36.30;8.90;;;0.30;99.90;;;;;;4990434;28;20037;-81
2022/02/26 07:39:50;;;;;;;35.73;8.50;;;0.30;99.90;;;;;;5000617;28;20041;-81
2022/02/26 07:42:16;;;;;;;33.93;8.40;;;0.30;99.90;;;;;;4984914;28;20030;-82
2022/02/26 07:44:41;;;;;;;30.83;7.50;;;0.40;99.90;;;;;;5013224;28;20097;-82
2022/02/26 07:47:07;;;;;;;28.83;7.50;;;0.50;99.90;;;;;;5013726;28;20058;-81
2022/02/26 07:49:33;;;;;;;36.30;9.53;;;0.50;99.90;;;;;;5003918;28;20045;-81
2022/02/26 07:51:59;;;;;;;18.93;7.10;;;0.70;99.90;;;;;;5015432;28;20051;-81
2022/02/26 07:54:25;;;;;;;372.60;52.33;;;0.70;99.90;;;;;;5000642;28;20388;-81
2022/02/26 07:56:50;;;;;;;34.17;10.17;;;0.80;99.90;;;;;;4990584;28;20105;-81
2022/02/26 07:59:16;;;;;;;35.60;8.90;;;0.90;99.90;;;;;;4998997;28;20507;-81
2022/02/26 08:01:42;;;;;;;33.17;9.23;;;0.90;99.90;;;;;;5004575;28;20095;-81
2022/02/26 08:04:08;;;;;;;33.37;9.37;;;1.00;99.90;;;;;;5010328;28;20045;-81
2022/02/26 08:06:34;;;;;;;35.23;7.87;;;1.10;99.90;;;;;;4959686;28;20417;-81
2022/02/26 08:09:00;;;;;;;30.03;7.67;;;1.20;99.90;;;;;;4980495;28;20081;-81
2022/02/26 08:11:29;;;;;;;43.37;10.30;;;1.30;99.90;;;;;;4981350;28;20133;-81
2022/02/26 08:13:56;;;;;;;36.57;8.90;;;1.50;99.90;;;;;;4993641;28;20042;-82
2022/02/26 08:16:26;;;;;;;33.17;8.37;;;1.50;99.90;;;;;;4998323;28;20033;-82
2022/02/26 08:18:52;;;;;;;29.23;7.80;;;1.70;99.90;;;;;;4989034;28;20053;-82
2022/02/26 08:21:22;;;;;;;35.20;7.87;;;1.80;99.90;;;;;;4992395;28;20054;-82
2022/02/26 08:23:48;;;;;;;34.47;7.67;;;1.90;99.90;;;;;;5003003;28;20103;-81
2022/02/26 08:26:18;;;;;;;31.43;9.10;;;2.10;99.90;;;;;;5015206;28;20104;-81
2022/02/26 08:28:44;;;;;;;26.90;8.17;;;2.20;99.90;;;;;;5010699;28;20049;-81
2022/02/26 08:31:10;;;;;;;38.17;9.20;;;2.50;99.90;;;;;;4996918;28;20725;-81
2022/02/26 08:33:36;;;;;;;27.03;8.33;;;2.50;99.90;;;;;;4990395;28;20586;-81
2022/02/26 08:36:02;;;;;;;33.10;8.13;;;2.70;99.90;;;;;;4979477;28;20049;-81
2022/02/26 08:38:28;;;;;;;27.83;7.37;;;2.70;99.90;;;;;;5006787;28;20049;-81
2022/02/26 08:40:54;;;;;;;29.03;8.13;;;2.80;99.90;;;;;;4999300;28;20111;-81
2022/02/26 08:43:21;;;;;;;38.60;10.57;;;2.80;99.90;;;;;;5009776;28;20061;-82
2022/02/26 08:45:47;;;;;;;39.50;10.13;;;2.90;99.90;;;;;;4982504;28;20424;-81
2022/02/26 08:48:16;;;;;;;33.87;9.60;;;3.00;99.90;;;;;;5003142;28;20101;-81
2022/02/26 08:50:42;;;;;;;42.83;11.57;;;3.00;99.90;;;;;;4989157;28;20111;-81
2022/02/26 08:53:11;;;;;;;43.67;11.30;;;3.10;99.90;;;;;;5008323;28;20046;-81
2022/02/26 08:55:37;;;;;;;175.83;25.03;;;3.10;99.90;;;;;;5012641;28;20038;-81
2022/02/26 08:58:03;;;;;;;72.13;16.33;;;3.10;99.90;;;;;;4977652;28;20053;-81
2022/02/26 09:00:29;;;;;;;82.40;19.60;;;3.10;99.90;;;;;;4980617;28;20124;-81
2022/02/26 09:02:58;;;;;;;47.50;16.87;;;3.10;99.90;;;;;;5002684;28;20560;-81
2022/02/26 09:05:24;;;;;;;60.57;15.90;;;3.10;99.90;;;;;;4983577;28;20516;-80
2022/02/26 09:07:50;;;;;;;201.67;26.80;;;3.10;99.90;;;;;;4986135;28;20419;-80
2022/02/26 09:10:15;;;;;;;45.43;11.47;;;3.20;99.90;;;;;;5004144;28;20045;-81
2022/02/26 09:12:42;;;;;;;31.57;12.77;;;3.20;99.90;;;;;;4976417;28;20072;-80
2022/02/26 09:15:08;;;;;;;67.73;19.53;;;3.30;99.90;;;;;;5010441;28;20144;-81
2022/02/26 09:17:34;;;;;;;52.07;17.90;;;3.40;99.90;;;;;;5001626;28;20309;-81
2022/02/26 09:20:00;;;;;;;35.67;17.70;;;3.50;99.90;;;;;;4978765;28;20049;-81
2022/02/26 09:22:26;;;;;;;35.20;16.87;;;3.50;99.90;;;;;;4998916;28;20083;-81
2022/02/26 09:24:52;;;;;;;39.73;18.60;;;3.60;99.90;;;;;;4972379;28;20045;-81
2022/02/26 09:27:18;;;;;;;35.83;16.13;;;3.70;99.90;;;;;;4978876;28;20042;-81
2022/02/26 09:29:44;;;;;;;34.40;15.97;;;3.80;99.90;;;;;;4997055;28;20053;-81
2022/02/26 09:32:09;;;;;;;106.93;24.90;;;3.90;99.90;;;;;;5004253;28;20046;-81
2022/02/26 09:34:35;;;;;;;59.33;17.50;;;4.00;99.90;;;;;;4991887;28;20495;-81
2022/02/26 09:37:01;;;;;;;35.53;13.43;;;4.10;99.90;;;;;;4981810;28;20064;-81
2022/02/26 09:39:27;;;;;;;27.50;11.47;;;4.20;99.90;;;;;;5001685;28;20144;-81
2022/02/26 09:41:55;;;;;;;168.00;28.50;;;4.30;99.90;;;;;;4991647;28;20049;-81
2022/02/26 09:44:21;;;;;;;28.50;9.63;;;4.40;99.90;;;;;;5015075;28;20703;-81
2022/02/26 09:46:48;;;;;;;26.57;9.93;;;4.50;99.90;;;;;;4973035;28;20054;-81
2022/02/26 09:49:17;;;;;;;34.30;10.57;;;4.70;99.90;;;;;;4994083;28;20140;-81
2022/02/26 09:51:44;;;;;;;74.13;15.05;;;4.80;99.90;;;;;;5009360;28;20042;-81
2022/02/26 09:54:14;;;;;;;31.40;9.83;;;4.90;99.90;;;;;;4997887;28;20046;-80
2022/02/26 09:56:40;;;;;;;505.35;84.15;;;5.10;99.90;;;;;;4992172;28;20115;-80
2022/02/26 09:59:06;;;;;;;26.90;8.93;;;5.10;99.90;;;;;;4994160;28;20496;-81
2022/02/26 10:01:32;;;;;;;30.42;9.65;;;5.30;99.90;;;;;;4991646;28;20136;-81
2022/02/26 10:04:10;;;;;;;56.17;10.88;;;5.40;99.90;;;;;;4990130;28;20095;-83
2022/02/26 10:06:35;;;;;;;27.08;8.10;;;5.50;99.90;;;;;;4989894;28;20096;-80
2022/02/26 10:09:07;;;;;;;1133.07;169.07;;;5.50;99.90;;;;;;5011026;28;20074;-80
2022/02/26 10:11:35;;;;;;;25.40;6.35;;;5.70;99.90;;;;;;5023115;28;20041;-80
2022/02/26 10:14:07;;;;;;;173.85;28.40;;;5.80;99.90;;;;;;5001193;28;20100;-81
2022/02/26 10:16:55;;;;;;;25.43;6.23;;;5.90;99.90;;;;;;4999370;28;20037;-81
2022/02/26 10:19:26;;;;;;;408.50;66.00;;;5.90;99.90;;;;;;4983495;28;20049;-81
2022/02/26 10:21:58;;;;;;;21.77;6.20;;;6.00;99.90;;;;;;5000538;28;20479;-81
2022/02/26 10:24:24;;;;;;;85.22;14.02;;;6.10;99.90;;;;;;5001363;28;20099;-81
2022/02/26 10:26:59;;;;;;;547.60;80.85;;;6.10;99.90;;;;;;5028508;28;20557;-81
2022/02/26 10:29:25;;;;;;;63.45;11.30;;;6.10;99.90;;;;;;5006796;28;20052;-81
2022/02/26 10:32:00;;;;;;;1137.07;232.13;;;6.20;99.90;;;;;;5003645;28;20088;-81
2022/02/26 10:34:30;;;;;;;42.17;8.15;;;6.20;99.90;;;;;;4994365;28;20226;-81
2022/02/26 10:37:02;;;;;;;;;;;6.40;99.90;;;;;;4992924;28;20100;-81
2022/02/26 10:39:37;;;;;;;21.60;4.75;;;6.50;99.90;;;;;;5002763;28;19921;-81
2022/02/26 10:42:05;;;;;;;137.48;18.33;;;6.50;99.90;;;;;;5024139;28;20042;-81
2022/02/26 10:44:31;;;;;;;20.40;3.40;;;6.60;99.90;;;;;;5007408;28;20515;-81
2022/02/26 10:47:07;;;;;;;22.38;4.55;;;6.60;99.90;;;;;;4984485;28;20095;-81
2022/02/26 10:49:33;;;;;;;19.17;3.72;;;6.60;99.90;;;;;;5004333;28;20041;-81
2022/02/26 10:52:08;;;;;;;17.90;3.63;;;6.70;99.90;;;;;;5011106;28;20408;-81
2022/02/26 10:54:34;;;;;;;108.45;12.65;;;6.80;99.90;;;;;;4975409;28;20084;-81
2022/02/26 10:57:03;;;;;;;15.60;2.63;;;6.80;99.90;;;;;;4992078;28;20390;-81
2022/02/26 10:59:36;;;;;;;42.13;6.15;;;6.90;99.90;;;;;;4978016;28;20050;-81
2022/02/26 11:02:05;;;;;;;25.15;4.57;;;6.90;99.90;;;;;;5001715;28;20474;-81
2022/02/26 11:04:32;;;;;;;324.63;44.00;;;6.90;99.90;;;;;;5022604;28;20054;-81
2022/02/26 11:06:59;;;;;;;20.50;3.58;;;7.00;99.90;;;;;;5005916;28;20130;-81
2022/02/26 11:09:28;;;;;;;15.85;3.42;;;7.00;99.90;;;;;;5027329;28;20096;-81
2022/02/26 11:12:00;;;;;;;18.60;3.30;;;7.10;99.90;;;;;;5007241;28;20041;-81
2022/02/26 11:14:32;;;;;;;20.00;4.03;;;7.10;99.90;;;;;;4998027;28;20038;-81
2022/02/26 11:17:02;;;;;;;17.70;3.28;;;7.20;99.90;;;;;;5004746;28;20111;-82
2022/02/26 11:19:31;;;;;;;16.27;3.35;;;7.20;99.90;;;;;;5011443;28;20357;-82
2022/02/26 11:21:59;;;;;;;17.95;2.90;;;7.30;99.90;;;;;;4994601;28;20041;-81
2022/02/26 11:24:26;;;;;;;16.90;3.38;;;7.40;99.90;;;;;;5025162;28;20508;-82
2022/02/26 11:26:52;;;;;;;21.40;3.22;;;7.50;99.90;;;;;;5016698;28;20149;-81
2022/02/26 11:29:21;;;;;;;15.93;2.80;;;7.50;99.90;;;;;;4966691;28;20047;-81
2022/02/26 11:31:49;;;;;;;21.80;3.47;;;7.60;99.90;;;;;;4993484;28;20484;-81
2022/02/26 11:34:26;;;;;;;18.17;2.85;;;7.70;99.90;;;;;;5017254;28;20053;-81
2022/02/26 11:36:56;;;;;;;18.60;2.92;;;7.60;99.90;;;;;;5006832;28;20067;-81
2022/02/26 11:39:43;;;;;;;14.95;2.70;;;7.60;99.90;;;;;;5017958;28;20042;-81
2022/02/26 11:42:19;;;;;;;18.20;3.50;;;7.60;99.90;;;;;;5018019;28;20050;-82
2022/02/26 11:44:51;;;;;;;19.13;3.10;;;7.60;99.90;;;;;;4994736;28;20107;-81
2022/02/26 11:47:19;;;;;;;16.80;2.83;;;7.60;99.90;;;;;;5001364;28;20046;-81
2022/02/26 11:49:56;;;;;;;17.60;2.90;;;7.70;99.90;;;;;;5001751;28;20033;-81
2022/02/26 11:52:41;;;;;;;17.95;3.25;;;7.80;99.90;;;;;;5012891;28;20045;-82
2022/02/26 11:55:35;;;;;;;18.10;3.47;;;7.80;99.90;;;;;;4989415;28;20129;-82
2022/02/26 11:58:18;;;;;;;18.17;2.70;;;7.90;99.90;;;;;;5008116;28;20532;-82
2022/02/26 12:00:53;;;;;;;17.38;2.95;;;8.00;99.90;;;;;;5015954;28;20076;-83
2022/02/26 12:03:29;;;;;;;15.02;2.70;;;8.10;99.90;;;;;;4997667;28;20627;-83
2022/02/26 12:06:12;;;;;;;59.63;7.10;;;8.10;99.90;;;;;;5021689;28;20099;-83
2022/02/26 12:08:44;;;;;;;18.45;2.15;;;8.20;99.90;;;;;;5001917;28;20072;-83
2022/02/26 12:11:39;;;;;;;25.02;4.13;;;8.10;99.90;;;;;;5007988;28;20132;-84
2022/02/26 12:14:21;;;;;;;15.85;2.88;;;8.10;99.90;;;;;;5019239;28;20064;-83
2022/02/26 12:17:08;;;;;;;29.70;3.58;;;8.20;99.90;;;;;;5008937;28;20041;-81
2022/02/26 12:19:46;;;;;;;46.47;7.82;;;8.10;99.90;;;;;;5014406;28;20042;-83
2022/02/26 12:22:12;;;;;;;18.27;3.30;;;8.20;99.90;;;;;;5016966;28;20466;-81
2022/02/26 12:25:12;;;;;;;15.88;3.05;;;8.20;99.90;;;;;;4976347;28;20054;-82
2022/02/26 12:27:43;;;;;;;16.38;4.05;;;8.20;99.90;;;;;;4986392;28;20046;-81
2022/02/26 12:30:14;;;;;;;17.08;3.55;;;8.10;99.90;;;;;;5006427;28;20054;-81
2022/02/26 12:32:51;;;;;;;45.58;5.95;;;7.90;99.90;;;;;;5022577;28;20051;-81
2022/02/26 12:35:23;;;;;;;17.67;3.30;;;7.90;99.90;;;;;;4997197;28;20131;-81
2022/02/26 12:37:50;;;;;;;20.27;3.60;;;7.90;99.90;;;;;;5002230;28;20053;-81
2022/02/26 12:40:22;;;;;;;22.08;3.75;;;8.00;99.90;;;;;;5012251;28;20042;-81
2022/02/26 12:42:49;;;;;;;14.77;3.35;;;8.20;99.90;;;;;;5006244;28;20045;-81
2022/02/26 12:45:20;;;;;;;13.20;2.67;;;8.40;99.90;;;;;;5001415;28;20042;-82
2022/02/26 12:47:46;;;;;;;21.05;3.65;;;8.50;99.90;;;;;;4973324;28;20115;-82